sensor_id;sensor_type;location;lat;lon;timestamp;P1;durP1;ratioP1;P2;durP2;ratioP2
6693;SDS011;3384;42.628;23.380;2023-08-24T00:00:23;21.93;;;20.63;;
6693;SDS011;3384;42.628;23.380;2023-08-24T00:02:50;24.00;;;22.30;;
6693;SDS011;3384;42.628;23.380;2023-08-24T00:05:17;23.73;;;21.80;;
6693;SDS011;3384;42.628;23.380;2023-08-24T00:07:44;24.20;;;22.00;;
6693;SDS011;3384;42.628;23.380;2023-08-24T00:10:13;24.00;;;21.90;;
6693;SDS011;3384;42.628;23.380;2023-08-24T00:12:41;24.43;;;22.40;;
6693;SDS011;3384;42.628;23.380;2023-08-24T00:15:08;23.27;;;21.87;;
6693;SDS011;3384;42.628;23.380;2023-08-24T00:17:35;23.33;;;21.10;;
6693;SDS011;3384;42.628;23.380;2023-08-24T00:20:03;22.87;;;21.50;;
6693;SDS011;3384;42.628;23.380;2023-08-24T00:22:31;23.70;;;22.00;;
6693;SDS011;3384;42.628;23.380;2023-08-24T00:24:58;24.73;;;22.80;;
6693;SDS011;3384;42.628;23.380;2023-08-24T00:27:25;22.73;;;21.40;;
6693;SDS011;3384;42.628;23.380;2023-08-24T00:29:53;23.17;;;21.77;;
6693;SDS011;3384;42.628;23.380;2023-08-24T00:32:21;23.83;;;21.67;;
6693;SDS011;3384;42.628;23.380;2023-08-24T00:34:48;24.63;;;22.57;;
6693;SDS011;3384;42.628;23.380;2023-08-24T00:37:15;28.73;;;22.53;;
6693;SDS011;3384;42.628;23.380;2023-08-24T00:39:42;23.00;;;21.00;;
6693;SDS011;3384;42.628;23.380;2023-08-24T00:42:08;24.90;;;22.67;;
6693;SDS011;3384;42.628;23.380;2023-08-24T00:44:39;23.93;;;22.43;;
6693;SDS011;3384;42.628;23.380;2023-08-24T00:47:08;23.73;;;22.03;;
6693;SDS011;3384;42.628;23.380;2023-08-24T00:49:35;23.43;;;21.77;;
6693;SDS011;3384;42.628;23.380;2023-08-24T00:52:02;22.33;;;20.90;;
6693;SDS011;3384;42.628;23.380;2023-08-24T00:54:30;23.17;;;21.80;;
6693;SDS011;3384;42.628;23.380;2023-08-24T00:56:56;24.97;;;22.67;;
6693;SDS011;3384;42.628;23.380;2023-08-24T00:59:23;23.47;;;21.60;;
6693;SDS011;3384;42.628;23.380;2023-08-24T01:01:50;23.10;;;21.70;;
6693;SDS011;3384;42.628;23.380;2023-08-24T01:04:19;23.53;;;21.87;;
6693;SDS011;3384;42.628;23.380;2023-08-24T01:06:46;24.23;;;21.73;;
6693;SDS011;3384;42.628;23.380;2023-08-24T01:09:13;23.50;;;21.60;;
6693;SDS011;3384;42.628;23.380;2023-08-24T01:11:43;23.20;;;21.50;;
6693;SDS011;3384;42.628;23.380;2023-08-24T01:14:19;22.77;;;21.23;;
6693;SDS011;3384;42.628;23.380;2023-08-24T01:16:50;25.27;;;20.83;;
6693;SDS011;3384;42.628;23.380;2023-08-24T01:19:25;22.40;;;20.97;;
6693;SDS011;3384;42.628;23.380;2023-08-24T01:22:01;22.30;;;20.80;;
6693;SDS011;3384;42.628;23.380;2023-08-24T01:24:34;22.20;;;20.90;;
6693;SDS011;3384;42.628;23.380;2023-08-24T01:27:06;22.70;;;20.97;;
6693;SDS011;3384;42.628;23.380;2023-08-24T01:29:35;24.13;;;22.30;;
6693;SDS011;3384;42.628;23.380;2023-08-24T01:32:04;22.37;;;20.77;;
6693;SDS011;3384;42.628;23.380;2023-08-24T01:34:31;23.40;;;20.60;;
6693;SDS011;3384;42.628;23.380;2023-08-24T01:36:57;21.43;;;20.03;;
6693;SDS011;3384;42.628;23.380;2023-08-24T01:39:30;22.53;;;21.03;;
6693;SDS011;3384;42.628;23.380;2023-08-24T01:42:02;21.70;;;20.20;;
6693;SDS011;3384;42.628;23.380;2023-08-24T01:44:33;21.00;;;19.80;;
6693;SDS011;3384;42.628;23.380;2023-08-24T01:47:04;22.17;;;20.47;;
6693;SDS011;3384;42.628;23.380;2023-08-24T01:49:32;22.13;;;20.53;;
6693;SDS011;3384;42.628;23.380;2023-08-24T01:52:00;20.83;;;19.33;;
6693;SDS011;3384;42.628;23.380;2023-08-24T01:54:28;21.40;;;19.90;;
6693;SDS011;3384;42.628;23.380;2023-08-24T01:56:55;21.03;;;19.63;;
6693;SDS011;3384;42.628;23.380;2023-08-24T01:59:21;22.10;;;20.30;;
6693;SDS011;3384;42.628;23.380;2023-08-24T02:01:50;23.47;;;20.10;;
6693;SDS011;3384;42.628;23.380;2023-08-24T02:04:16;21.93;;;20.47;;
6693;SDS011;3384;42.628;23.380;2023-08-24T02:06:43;21.60;;;20.20;;
6693;SDS011;3384;42.628;23.380;2023-08-24T02:09:10;20.27;;;19.03;;
6693;SDS011;3384;42.628;23.380;2023-08-24T02:11:37;20.43;;;19.00;;
6693;SDS011;3384;42.628;23.380;2023-08-24T02:14:04;20.30;;;19.10;;
6693;SDS011;3384;42.628;23.380;2023-08-24T02:16:31;20.23;;;19.00;;
6693;SDS011;3384;42.628;23.380;2023-08-24T02:18:59;21.57;;;20.17;;
6693;SDS011;3384;42.628;23.380;2023-08-24T02:21:26;22.03;;;19.30;;
6693;SDS011;3384;42.628;23.380;2023-08-24T02:23:53;19.97;;;18.90;;
6693;SDS011;3384;42.628;23.380;2023-08-24T02:26:19;22.00;;;20.40;;
6693;SDS011;3384;42.628;23.380;2023-08-24T02:28:46;20.77;;;19.27;;
6693;SDS011;3384;42.628;23.380;2023-08-24T02:31:13;20.47;;;18.67;;
6693;SDS011;3384;42.628;23.380;2023-08-24T02:33:41;20.63;;;19.13;;
6693;SDS011;3384;42.628;23.380;2023-08-24T02:36:09;21.70;;;20.27;;
6693;SDS011;3384;42.628;23.380;2023-08-24T02:38:36;21.23;;;19.40;;
6693;SDS011;3384;42.628;23.380;2023-08-24T02:41:03;20.90;;;19.37;;
6693;SDS011;3384;42.628;23.380;2023-08-24T02:43:30;20.93;;;19.40;;
6693;SDS011;3384;42.628;23.380;2023-08-24T02:46:00;21.23;;;19.83;;
6693;SDS011;3384;42.628;23.380;2023-08-24T02:48:28;21.90;;;20.40;;
6693;SDS011;3384;42.628;23.380;2023-08-24T02:50:56;22.50;;;21.00;;
6693;SDS011;3384;42.628;23.380;2023-08-24T02:53:25;22.30;;;20.00;;
6693;SDS011;3384;42.628;23.380;2023-08-24T02:55:52;21.63;;;19.90;;
6693;SDS011;3384;42.628;23.380;2023-08-24T02:58:19;22.40;;;20.63;;
6693;SDS011;3384;42.628;23.380;2023-08-24T03:00:46;21.47;;;19.87;;
6693;SDS011;3384;42.628;23.380;2023-08-24T03:03:13;22.30;;;20.60;;
6693;SDS011;3384;42.628;23.380;2023-08-24T03:05:40;19.53;;;18.23;;
6693;SDS011;3384;42.628;23.380;2023-08-24T03:08:07;24.43;;;21.80;;
6693;SDS011;3384;42.628;23.380;2023-08-24T03:10:35;19.30;;;18.13;;
6693;SDS011;3384;42.628;23.380;2023-08-24T03:13:02;24.40;;;22.10;;
6693;SDS011;3384;42.628;23.380;2023-08-24T03:15:29;22.50;;;19.60;;
6693;SDS011;3384;42.628;23.380;2023-08-24T03:17:57;21.00;;;19.60;;
6693;SDS011;3384;42.628;23.380;2023-08-24T03:20:24;20.63;;;19.10;;
6693;SDS011;3384;42.628;23.380;2023-08-24T03:22:50;20.73;;;18.67;;
6693;SDS011;3384;42.628;23.380;2023-08-24T03:25:17;21.67;;;19.90;;
6693;SDS011;3384;42.628;23.380;2023-08-24T03:27:45;21.10;;;19.60;;
6693;SDS011;3384;42.628;23.380;2023-08-24T03:30:12;23.60;;;20.47;;
6693;SDS011;3384;42.628;23.380;2023-08-24T03:32:40;20.90;;;19.33;;
6693;SDS011;3384;42.628;23.380;2023-08-24T03:35:07;21.53;;;19.80;;
6693;SDS011;3384;42.628;23.380;2023-08-24T03:37:34;21.97;;;20.47;;
6693;SDS011;3384;42.628;23.380;2023-08-24T03:40:01;22.53;;;21.07;;
6693;SDS011;3384;42.628;23.380;2023-08-24T03:42:30;21.53;;;19.53;;
6693;SDS011;3384;42.628;23.380;2023-08-24T03:44:59;23.10;;;19.50;;
6693;SDS011;3384;42.628;23.380;2023-08-24T03:47:26;21.77;;;20.20;;
6693;SDS011;3384;42.628;23.380;2023-08-24T03:49:53;22.87;;;20.93;;
6693;SDS011;3384;42.628;23.380;2023-08-24T03:52:20;22.10;;;20.03;;
6693;SDS011;3384;42.628;23.380;2023-08-24T03:54:47;23.43;;;21.50;;
6693;SDS011;3384;42.628;23.380;2023-08-24T03:57:13;22.67;;;20.30;;
6693;SDS011;3384;42.628;23.380;2023-08-24T03:59:41;20.73;;;19.13;;
6693;SDS011;3384;42.628;23.380;2023-08-24T04:02:09;22.50;;;20.60;;
6693;SDS011;3384;42.628;23.380;2023-08-24T04:04:36;21.90;;;20.00;;
6693;SDS011;3384;42.628;23.380;2023-08-24T04:07:03;22.03;;;20.33;;
6693;SDS011;3384;42.628;23.380;2023-08-24T04:09:30;23.30;;;21.10;;
6693;SDS011;3384;42.628;23.380;2023-08-24T04:11:57;23.13;;;20.13;;
6693;SDS011;3384;42.628;23.380;2023-08-24T04:14:23;22.90;;;20.83;;
6693;SDS011;3384;42.628;23.380;2023-08-24T04:16:50;22.47;;;20.67;;
6693;SDS011;3384;42.628;23.380;2023-08-24T04:19:19;22.63;;;20.93;;
6693;SDS011;3384;42.628;23.380;2023-08-24T04:21:45;23.10;;;21.10;;
6693;SDS011;3384;42.628;23.380;2023-08-24T04:24:12;26.60;;;20.63;;
6693;SDS011;3384;42.628;23.380;2023-08-24T04:26:39;23.07;;;20.67;;
6693;SDS011;3384;42.628;23.380;2023-08-24T04:29:06;21.57;;;19.93;;
6693;SDS011;3384;42.628;23.380;2023-08-24T04:31:32;21.50;;;19.77;;
6693;SDS011;3384;42.628;23.380;2023-08-24T04:34:02;21.60;;;19.80;;
6693;SDS011;3384;42.628;23.380;2023-08-24T04:36:31;20.00;;;18.10;;
6693;SDS011;3384;42.628;23.380;2023-08-24T04:38:58;19.83;;;18.43;;
6693;SDS011;3384;42.628;23.380;2023-08-24T04:41:25;30.27;;;19.50;;
6693;SDS011;3384;42.628;23.380;2023-08-24T04:43:51;20.07;;;18.63;;
6693;SDS011;3384;42.628;23.380;2023-08-24T04:46:18;22.93;;;18.53;;
6693;SDS011;3384;42.628;23.380;2023-08-24T04:48:45;19.63;;;18.13;;
6693;SDS011;3384;42.628;23.380;2023-08-24T04:51:12;20.77;;;19.37;;
6693;SDS011;3384;42.628;23.380;2023-08-24T04:53:40;22.67;;;20.53;;
6693;SDS011;3384;42.628;23.380;2023-08-24T04:56:07;21.00;;;18.97;;
6693;SDS011;3384;42.628;23.380;2023-08-24T04:58:34;21.90;;;19.90;;
6693;SDS011;3384;42.628;23.380;2023-08-24T05:01:00;21.97;;;19.60;;
6693;SDS011;3384;42.628;23.380;2023-08-24T05:03:27;23.63;;;20.60;;
6693;SDS011;3384;42.628;23.380;2023-08-24T05:05:54;35.50;;;18.97;;
6693;SDS011;3384;42.628;23.380;2023-08-24T05:08:21;21.17;;;19.73;;
6693;SDS011;3384;42.628;23.380;2023-08-24T05:10:49;20.30;;;18.87;;
6693;SDS011;3384;42.628;23.380;2023-08-24T05:13:16;22.83;;;20.37;;
6693;SDS011;3384;42.628;23.380;2023-08-24T05:15:42;22.97;;;21.17;;
6693;SDS011;3384;42.628;23.380;2023-08-24T05:18:09;22.03;;;19.93;;
6693;SDS011;3384;42.628;23.380;2023-08-24T05:20:36;34.30;;;22.77;;
6693;SDS011;3384;42.628;23.380;2023-08-24T05:23:03;20.97;;;19.50;;
6693;SDS011;3384;42.628;23.380;2023-08-24T05:25:31;21.67;;;19.60;;
6693;SDS011;3384;42.628;23.380;2023-08-24T05:28:00;33.13;;;20.83;;
6693;SDS011;3384;42.628;23.380;2023-08-24T05:30:28;22.40;;;20.53;;
6693;SDS011;3384;42.628;23.380;2023-08-24T05:32:55;36.07;;;20.40;;
6693;SDS011;3384;42.628;23.380;2023-08-24T05:35:21;28.20;;;20.80;;
6693;SDS011;3384;42.628;23.380;2023-08-24T05:37:48;28.20;;;19.83;;
6693;SDS011;3384;42.628;23.380;2023-08-24T05:40:15;22.27;;;18.97;;
6693;SDS011;3384;42.628;23.380;2023-08-24T05:42:42;23.23;;;21.10;;
6693;SDS011;3384;42.628;23.380;2023-08-24T05:45:10;22.60;;;20.73;;
6693;SDS011;3384;42.628;23.380;2023-08-24T05:47:42;22.47;;;20.60;;
6693;SDS011;3384;42.628;23.380;2023-08-24T05:50:09;24.17;;;22.20;;
6693;SDS011;3384;42.628;23.380;2023-08-24T05:52:36;39.77;;;20.10;;
6693;SDS011;3384;42.628;23.380;2023-08-24T05:55:03;25.13;;;21.47;;
6693;SDS011;3384;42.628;23.380;2023-08-24T05:57:31;22.23;;;19.90;;
6693;SDS011;3384;42.628;23.380;2023-08-24T05:59:58;30.77;;;22.03;;
6693;SDS011;3384;42.628;23.380;2023-08-24T06:02:26;23.30;;;21.30;;
6693;SDS011;3384;42.628;23.380;2023-08-24T06:04:53;23.87;;;21.47;;
6693;SDS011;3384;42.628;23.380;2023-08-24T06:07:19;30.10;;;21.70;;
6693;SDS011;3384;42.628;23.380;2023-08-24T06:09:47;33.97;;;22.10;;
6693;SDS011;3384;42.628;23.380;2023-08-24T06:12:13;31.37;;;26.47;;
6693;SDS011;3384;42.628;23.380;2023-08-24T06:14:40;53.43;;;26.40;;
6693;SDS011;3384;42.628;23.380;2023-08-24T06:17:07;29.10;;;26.17;;
6693;SDS011;3384;42.628;23.380;2023-08-24T06:19:35;26.93;;;24.63;;
6693;SDS011;3384;42.628;23.380;2023-08-24T06:22:02;29.37;;;26.20;;
6693;SDS011;3384;42.628;23.380;2023-08-24T06:24:29;35.83;;;28.13;;
6693;SDS011;3384;42.628;23.380;2023-08-24T06:26:56;28.67;;;26.00;;
6693;SDS011;3384;42.628;23.380;2023-08-24T06:29:22;33.93;;;26.30;;
6693;SDS011;3384;42.628;23.380;2023-08-24T06:31:49;30.20;;;27.40;;
6693;SDS011;3384;42.628;23.380;2023-08-24T06:34:18;31.03;;;27.50;;
6693;SDS011;3384;42.628;23.380;2023-08-24T06:36:46;31.50;;;25.60;;
6693;SDS011;3384;42.628;23.380;2023-08-24T06:39:13;28.33;;;25.53;;
6693;SDS011;3384;42.628;23.380;2023-08-24T06:41:40;30.63;;;25.00;;
6693;SDS011;3384;42.628;23.380;2023-08-24T06:44:07;28.13;;;24.87;;
6693;SDS011;3384;42.628;23.380;2023-08-24T06:46:33;29.50;;;26.60;;
6693;SDS011;3384;42.628;23.380;2023-08-24T06:49:00;35.83;;;26.63;;
6693;SDS011;3384;42.628;23.380;2023-08-24T06:51:27;28.57;;;25.50;;
6693;SDS011;3384;42.628;23.380;2023-08-24T06:53:55;33.87;;;29.50;;
6693;SDS011;3384;42.628;23.380;2023-08-24T06:56:22;30.83;;;26.90;;
6693;SDS011;3384;42.628;23.380;2023-08-24T06:58:49;29.07;;;25.13;;
6693;SDS011;3384;42.628;23.380;2023-08-24T07:01:16;30.10;;;27.10;;
6693;SDS011;3384;42.628;23.380;2023-08-24T07:03:43;29.07;;;26.00;;
6693;SDS011;3384;42.628;23.380;2023-08-24T07:06:09;38.50;;;28.00;;
6693;SDS011;3384;42.628;23.380;2023-08-24T07:08:37;31.73;;;25.97;;
6693;SDS011;3384;42.628;23.380;2023-08-24T07:11:06;47.77;;;27.03;;
6693;SDS011;3384;42.628;23.380;2023-08-24T07:13:32;38.50;;;26.20;;
6693;SDS011;3384;42.628;23.380;2023-08-24T07:15:59;35.70;;;27.23;;
6693;SDS011;3384;42.628;23.380;2023-08-24T07:18:28;30.27;;;27.17;;
6693;SDS011;3384;42.628;23.380;2023-08-24T07:20:55;37.23;;;26.77;;
6693;SDS011;3384;42.628;23.380;2023-08-24T07:23:21;32.27;;;28.87;;
6693;SDS011;3384;42.628;23.380;2023-08-24T07:25:48;29.00;;;25.83;;
6693;SDS011;3384;42.628;23.380;2023-08-24T07:28:16;31.43;;;28.17;;
6693;SDS011;3384;42.628;23.380;2023-08-24T07:30:43;36.77;;;26.30;;
6693;SDS011;3384;42.628;23.380;2023-08-24T07:33:10;38.03;;;27.47;;
6693;SDS011;3384;42.628;23.380;2023-08-24T07:35:37;35.43;;;25.40;;
6693;SDS011;3384;42.628;23.380;2023-08-24T07:38:04;29.07;;;25.90;;
6693;SDS011;3384;42.628;23.380;2023-08-24T07:40:31;38.80;;;26.70;;
6693;SDS011;3384;42.628;23.380;2023-08-24T07:42:58;31.23;;;26.03;;
6693;SDS011;3384;42.628;23.380;2023-08-24T07:45:27;44.17;;;27.47;;
6693;SDS011;3384;42.628;23.380;2023-08-24T07:47:54;31.80;;;27.00;;
6693;SDS011;3384;42.628;23.380;2023-08-24T07:50:20;30.50;;;27.30;;
6693;SDS011;3384;42.628;23.380;2023-08-24T07:52:48;29.37;;;26.37;;
6693;SDS011;3384;42.628;23.380;2023-08-24T07:55:15;29.77;;;25.23;;
6693;SDS011;3384;42.628;23.380;2023-08-24T07:57:42;35.27;;;27.77;;
6693;SDS011;3384;42.628;23.380;2023-08-24T08:00:09;37.37;;;26.57;;
6693;SDS011;3384;42.628;23.380;2023-08-24T08:02:40;29.33;;;26.63;;
6693;SDS011;3384;42.628;23.380;2023-08-24T08:05:07;28.67;;;25.87;;
6693;SDS011;3384;42.628;23.380;2023-08-24T08:07:35;35.87;;;26.53;;
6693;SDS011;3384;42.628;23.380;2023-08-24T08:10:03;29.27;;;26.17;;
6693;SDS011;3384;42.628;23.380;2023-08-24T08:12:31;29.80;;;26.90;;
6693;SDS011;3384;42.628;23.380;2023-08-24T08:14:58;29.87;;;27.43;;
6693;SDS011;3384;42.628;23.380;2023-08-24T08:17:25;30.23;;;27.13;;
6693;SDS011;3384;42.628;23.380;2023-08-24T08:19:55;28.87;;;26.20;;
6693;SDS011;3384;42.628;23.380;2023-08-24T08:22:22;36.20;;;26.50;;
6693;SDS011;3384;42.628;23.380;2023-08-24T08:24:50;28.23;;;25.83;;
6693;SDS011;3384;42.628;23.380;2023-08-24T08:27:19;25.37;;;23.60;;
6693;SDS011;3384;42.628;23.380;2023-08-24T08:29:46;27.87;;;25.67;;
6693;SDS011;3384;42.628;23.380;2023-08-24T08:32:13;27.47;;;25.07;;
6693;SDS011;3384;42.628;23.380;2023-08-24T08:34:40;25.93;;;24.03;;
6693;SDS011;3384;42.628;23.380;2023-08-24T08:37:08;26.67;;;24.10;;
6693;SDS011;3384;42.628;23.380;2023-08-24T08:39:36;26.37;;;24.40;;
6693;SDS011;3384;42.628;23.380;2023-08-24T08:42:02;27.73;;;24.90;;
6693;SDS011;3384;42.628;23.380;2023-08-24T08:44:30;27.70;;;25.10;;
6693;SDS011;3384;42.628;23.380;2023-08-24T08:46:57;27.37;;;25.23;;
6693;SDS011;3384;42.628;23.380;2023-08-24T08:49:25;26.13;;;24.23;;
6693;SDS011;3384;42.628;23.380;2023-08-24T08:51:52;27.73;;;25.00;;
6693;SDS011;3384;42.628;23.380;2023-08-24T08:54:20;27.90;;;25.50;;
6693;SDS011;3384;42.628;23.380;2023-08-24T08:56:47;29.17;;;26.20;;
6693;SDS011;3384;42.628;23.380;2023-08-24T08:59:15;28.87;;;24.73;;
6693;SDS011;3384;42.628;23.380;2023-08-24T09:01:42;27.40;;;24.90;;
6693;SDS011;3384;42.628;23.380;2023-08-24T09:04:12;28.57;;;25.93;;
6693;SDS011;3384;42.628;23.380;2023-08-24T09:06:39;28.30;;;25.23;;
6693;SDS011;3384;42.628;23.380;2023-08-24T09:09:07;26.50;;;24.50;;
6693;SDS011;3384;42.628;23.380;2023-08-24T09:11:35;27.70;;;25.50;;
6693;SDS011;3384;42.628;23.380;2023-08-24T09:14:04;26.47;;;24.40;;
6693;SDS011;3384;42.628;23.380;2023-08-24T09:16:30;26.90;;;24.40;;
6693;SDS011;3384;42.628;23.380;2023-08-24T09:18:59;26.20;;;23.43;;
6693;SDS011;3384;42.628;23.380;2023-08-24T09:21:25;25.97;;;24.03;;
6693;SDS011;3384;42.628;23.380;2023-08-24T09:23:53;26.07;;;23.73;;
6693;SDS011;3384;42.628;23.380;2023-08-24T09:26:27;26.80;;;24.50;;
6693;SDS011;3384;42.628;23.380;2023-08-24T09:28:56;27.00;;;24.93;;
6693;SDS011;3384;42.628;23.380;2023-08-24T09:31:22;27.80;;;24.83;;
6693;SDS011;3384;42.628;23.380;2023-08-24T09:33:50;26.90;;;24.10;;
6693;SDS011;3384;42.628;23.380;2023-08-24T09:36:26;26.93;;;24.70;;
6693;SDS011;3384;42.628;23.380;2023-08-24T09:38:53;27.03;;;25.03;;
6693;SDS011;3384;42.628;23.380;2023-08-24T09:41:22;28.97;;;26.07;;
6693;SDS011;3384;42.628;23.380;2023-08-24T09:43:49;28.20;;;25.67;;
6693;SDS011;3384;42.628;23.380;2023-08-24T09:46:19;29.80;;;27.00;;
6693;SDS011;3384;42.628;23.380;2023-08-24T09:48:52;29.27;;;26.47;;
6693;SDS011;3384;42.628;23.380;2023-08-24T09:51:21;28.27;;;25.33;;
6693;SDS011;3384;42.628;23.380;2023-08-24T09:53:49;25.53;;;23.60;;
6693;SDS011;3384;42.628;23.380;2023-08-24T09:56:16;26.70;;;24.67;;
6693;SDS011;3384;42.628;23.380;2023-08-24T09:58:43;27.03;;;24.40;;
6693;SDS011;3384;42.628;23.380;2023-08-24T10:01:12;25.77;;;24.00;;
6693;SDS011;3384;42.628;23.380;2023-08-24T10:03:41;27.60;;;25.03;;
6693;SDS011;3384;42.628;23.380;2023-08-24T10:06:09;27.03;;;24.87;;
6693;SDS011;3384;42.628;23.380;2023-08-24T10:08:39;26.13;;;24.30;;
6693;SDS011;3384;42.628;23.380;2023-08-24T10:11:10;26.80;;;24.80;;
6693;SDS011;3384;42.628;23.380;2023-08-24T10:13:41;28.07;;;25.97;;
6693;SDS011;3384;42.628;23.380;2023-08-24T10:16:16;25.63;;;24.13;;
6693;SDS011;3384;42.628;23.380;2023-08-24T10:18:46;26.97;;;24.70;;
6693;SDS011;3384;42.628;23.380;2023-08-24T10:21:13;25.93;;;23.70;;
6693;SDS011;3384;42.628;23.380;2023-08-24T10:23:42;26.07;;;23.50;;
6693;SDS011;3384;42.628;23.380;2023-08-24T10:26:09;26.30;;;23.97;;
6693;SDS011;3384;42.628;23.380;2023-08-24T10:28:38;25.33;;;23.20;;
6693;SDS011;3384;42.628;23.380;2023-08-24T10:31:05;36.27;;;33.27;;
6693;SDS011;3384;42.628;23.380;2023-08-24T10:33:33;27.30;;;25.10;;
6693;SDS011;3384;42.628;23.380;2023-08-24T10:36:05;27.50;;;24.70;;
6693;SDS011;3384;42.628;23.380;2023-08-24T10:38:34;26.37;;;24.20;;
6693;SDS011;3384;42.628;23.380;2023-08-24T10:41:06;25.37;;;23.53;;
6693;SDS011;3384;42.628;23.380;2023-08-24T10:43:34;27.10;;;24.70;;
6693;SDS011;3384;42.628;23.380;2023-08-24T10:46:01;28.77;;;26.07;;
6693;SDS011;3384;42.628;23.380;2023-08-24T10:48:29;25.43;;;23.30;;
6693;SDS011;3384;42.628;23.380;2023-08-24T10:53:51;24.63;;;22.93;;
6693;SDS011;3384;42.628;23.380;2023-08-24T10:56:19;26.43;;;24.07;;
6693;SDS011;3384;42.628;23.380;2023-08-24T10:58:47;27.50;;;25.23;;
6693;SDS011;3384;42.628;23.380;2023-08-24T11:01:34;26.10;;;23.97;;
6693;SDS011;3384;42.628;23.380;2023-08-24T11:04:04;26.47;;;24.77;;
6693;SDS011;3384;42.628;23.380;2023-08-24T11:06:33;27.93;;;25.20;;
6693;SDS011;3384;42.628;23.380;2023-08-24T11:09:07;26.60;;;24.10;;
6693;SDS011;3384;42.628;23.380;2023-08-24T11:11:38;26.30;;;24.60;;
6693;SDS011;3384;42.628;23.380;2023-08-24T11:14:15;24.83;;;23.03;;
6693;SDS011;3384;42.628;23.380;2023-08-24T11:16:45;27.47;;;24.70;;
6693;SDS011;3384;42.628;23.380;2023-08-24T11:19:13;24.93;;;22.50;;
6693;SDS011;3384;42.628;23.380;2023-08-24T11:21:42;24.57;;;23.07;;
6693;SDS011;3384;42.628;23.380;2023-08-24T11:24:09;27.47;;;25.03;;
6693;SDS011;3384;42.628;23.380;2023-08-24T11:26:41;27.73;;;25.43;;
6693;SDS011;3384;42.628;23.380;2023-08-24T11:29:09;26.80;;;24.30;;
6693;SDS011;3384;42.628;23.380;2023-08-24T11:31:36;25.70;;;23.90;;
6693;SDS011;3384;42.628;23.380;2023-08-24T11:34:04;26.50;;;24.03;;
6693;SDS011;3384;42.628;23.380;2023-08-24T11:36:42;36.33;;;24.13;;
6693;SDS011;3384;42.628;23.380;2023-08-24T11:39:14;25.40;;;23.13;;
6693;SDS011;3384;42.628;23.380;2023-08-24T11:41:43;27.30;;;24.70;;
6693;SDS011;3384;42.628;23.380;2023-08-24T11:44:10;27.03;;;23.97;;
6693;SDS011;3384;42.628;23.380;2023-08-24T11:46:38;27.40;;;24.73;;
6693;SDS011;3384;42.628;23.380;2023-08-24T11:49:05;27.13;;;25.17;;
6693;SDS011;3384;42.628;23.380;2023-08-24T11:51:32;25.80;;;23.13;;
6693;SDS011;3384;42.628;23.380;2023-08-24T11:54:02;26.53;;;24.70;;
6693;SDS011;3384;42.628;23.380;2023-08-24T11:56:29;26.97;;;24.80;;
6693;SDS011;3384;42.628;23.380;2023-08-24T11:58:56;26.60;;;24.60;;
6693;SDS011;3384;42.628;23.380;2023-08-24T12:01:23;26.30;;;24.30;;
6693;SDS011;3384;42.628;23.380;2023-08-24T12:03:52;25.67;;;23.30;;
6693;SDS011;3384;42.628;23.380;2023-08-24T12:06:19;33.23;;;24.30;;
6693;SDS011;3384;42.628;23.380;2023-08-24T12:08:46;24.63;;;22.83;;
6693;SDS011;3384;42.628;23.380;2023-08-24T12:11:17;25.40;;;23.53;;
6693;SDS011;3384;42.628;23.380;2023-08-24T12:13:46;25.60;;;23.13;;
6693;SDS011;3384;42.628;23.380;2023-08-24T12:16:13;29.60;;;23.30;;
6693;SDS011;3384;42.628;23.380;2023-08-24T12:18:48;24.00;;;22.17;;
6693;SDS011;3384;42.628;23.380;2023-08-24T12:21:17;24.93;;;22.43;;
6693;SDS011;3384;42.628;23.380;2023-08-24T12:23:44;27.77;;;22.10;;
6693;SDS011;3384;42.628;23.380;2023-08-24T12:26:19;24.03;;;22.07;;
6693;SDS011;3384;42.628;23.380;2023-08-24T12:28:48;23.73;;;21.73;;
6693;SDS011;3384;42.628;23.380;2023-08-24T12:31:16;25.87;;;23.23;;
6693;SDS011;3384;42.628;23.380;2023-08-24T12:33:43;23.80;;;22.27;;
6693;SDS011;3384;42.628;23.380;2023-08-24T12:36:10;25.90;;;22.90;;
6693;SDS011;3384;42.628;23.380;2023-08-24T12:38:37;27.03;;;22.93;;
6693;SDS011;3384;42.628;23.380;2023-08-24T12:41:07;24.23;;;22.43;;
6693;SDS011;3384;42.628;23.380;2023-08-24T12:43:35;24.47;;;22.03;;
6693;SDS011;3384;42.628;23.380;2023-08-24T12:46:01;25.00;;;23.10;;
6693;SDS011;3384;42.628;23.380;2023-08-24T12:48:29;27.07;;;24.60;;
6693;SDS011;3384;42.628;23.380;2023-08-24T12:50:55;24.60;;;22.80;;
6693;SDS011;3384;42.628;23.380;2023-08-24T12:53:22;24.17;;;22.30;;
6693;SDS011;3384;42.628;23.380;2023-08-24T12:55:49;24.73;;;22.47;;
6693;SDS011;3384;42.628;23.380;2023-08-24T12:58:16;24.23;;;21.83;;
6693;SDS011;3384;42.628;23.380;2023-08-24T13:00:44;27.87;;;24.90;;
6693;SDS011;3384;42.628;23.380;2023-08-24T13:03:12;25.60;;;23.27;;
6693;SDS011;3384;42.628;23.380;2023-08-24T13:05:39;26.77;;;24.53;;
6693;SDS011;3384;42.628;23.380;2023-08-24T13:08:05;25.50;;;23.63;;
6693;SDS011;3384;42.628;23.380;2023-08-24T13:10:32;26.27;;;23.63;;
6693;SDS011;3384;42.628;23.380;2023-08-24T13:13:01;25.73;;;23.50;;
6693;SDS011;3384;42.628;23.380;2023-08-24T13:15:28;23.40;;;21.60;;
6693;SDS011;3384;42.628;23.380;2023-08-24T13:17:57;25.97;;;24.07;;
6693;SDS011;3384;42.628;23.380;2023-08-24T13:20:23;25.13;;;22.87;;
6693;SDS011;3384;42.628;23.380;2023-08-24T13:22:50;23.30;;;21.40;;
6693;SDS011;3384;42.628;23.380;2023-08-24T13:25:17;22.23;;;20.93;;
6693;SDS011;3384;42.628;23.380;2023-08-24T13:27:44;26.97;;;23.80;;
6693;SDS011;3384;42.628;23.380;2023-08-24T13:30:13;25.13;;;23.13;;
6693;SDS011;3384;42.628;23.380;2023-08-24T13:32:40;23.67;;;22.00;;
6693;SDS011;3384;42.628;23.380;2023-08-24T13:35:09;24.07;;;22.43;;
6693;SDS011;3384;42.628;23.380;2023-08-24T13:37:36;23.60;;;21.80;;
6693;SDS011;3384;42.628;23.380;2023-08-24T13:40:03;24.93;;;23.33;;
6693;SDS011;3384;42.628;23.380;2023-08-24T13:42:33;26.17;;;23.43;;
6693;SDS011;3384;42.628;23.380;2023-08-24T13:45:01;23.87;;;22.17;;
6693;SDS011;3384;42.628;23.380;2023-08-24T13:47:28;23.73;;;21.83;;
6693;SDS011;3384;42.628;23.380;2023-08-24T13:49:55;24.03;;;22.00;;
6693;SDS011;3384;42.628;23.380;2023-08-24T13:52:23;25.07;;;23.10;;
6693;SDS011;3384;42.628;23.380;2023-08-24T13:54:50;22.67;;;21.10;;
6693;SDS011;3384;42.628;23.380;2023-08-24T13:57:17;23.93;;;22.43;;
6693;SDS011;3384;42.628;23.380;2023-08-24T13:59:43;25.07;;;22.57;;
6693;SDS011;3384;42.628;23.380;2023-08-24T14:02:10;27.20;;;24.80;;
6693;SDS011;3384;42.628;23.380;2023-08-24T14:04:37;24.47;;;22.80;;
6693;SDS011;3384;42.628;23.380;2023-08-24T14:07:04;23.97;;;22.23;;
6693;SDS011;3384;42.628;23.380;2023-08-24T14:09:32;25.13;;;22.33;;
6693;SDS011;3384;42.628;23.380;2023-08-24T14:11:59;24.63;;;22.83;;
6693;SDS011;3384;42.628;23.380;2023-08-24T14:14:26;25.73;;;22.70;;
6693;SDS011;3384;42.628;23.380;2023-08-24T14:16:56;26.67;;;24.40;;
6693;SDS011;3384;42.628;23.380;2023-08-24T14:19:23;24.13;;;21.97;;
6693;SDS011;3384;42.628;23.380;2023-08-24T14:21:50;24.90;;;23.20;;
6693;SDS011;3384;42.628;23.380;2023-08-24T14:24:17;27.50;;;25.40;;
6693;SDS011;3384;42.628;23.380;2023-08-24T14:26:45;24.90;;;22.80;;
6693;SDS011;3384;42.628;23.380;2023-08-24T14:29:12;24.97;;;23.17;;
6693;SDS011;3384;42.628;23.380;2023-08-24T14:31:40;25.00;;;22.77;;
6693;SDS011;3384;42.628;23.380;2023-08-24T14:34:07;24.40;;;23.00;;
6693;SDS011;3384;42.628;23.380;2023-08-24T14:36:33;25.57;;;23.53;;
6693;SDS011;3384;42.628;23.380;2023-08-24T14:39:00;26.37;;;23.60;;